sensor_id;sensor_type;location;lat;lon;timestamp;P1;durP1;ratioP1;P2;durP2;ratioP2
6598;SDS011;3335;43.198;27.918;2023-02-23T00:01:11;25.87;;;12.40;;
6598;SDS011;3335;43.198;27.918;2023-02-23T00:03:40;30.07;;;14.77;;
6598;SDS011;3335;43.198;27.918;2023-02-23T00:06:07;26.37;;;12.10;;
6598;SDS011;3335;43.198;27.918;2023-02-23T00:08:36;22.20;;;12.37;;
6598;SDS011;3335;43.198;27.918;2023-02-23T00:11:04;22.27;;;10.93;;
6598;SDS011;3335;43.198;27.918;2023-02-23T00:13:32;20.53;;;11.23;;
6598;SDS011;3335;43.198;27.918;2023-02-23T00:16:05;26.27;;;11.63;;
6598;SDS011;3335;43.198;27.918;2023-02-23T00:18:32;26.83;;;10.83;;
6598;SDS011;3335;43.198;27.918;2023-02-23T00:21:10;19.83;;;10.50;;
6598;SDS011;3335;43.198;27.918;2023-02-23T00:23:41;23.13;;;12.00;;
6598;SDS011;3335;43.198;27.918;2023-02-23T00:26:09;22.07;;;10.90;;
6598;SDS011;3335;43.198;27.918;2023-02-23T00:28:38;20.30;;;9.93;;
6598;SDS011;3335;43.198;27.918;2023-02-23T00:31:07;22.13;;;10.40;;
6598;SDS011;3335;43.198;27.918;2023-02-23T00:33:35;27.43;;;11.03;;
6598;SDS011;3335;43.198;27.918;2023-02-23T00:36:03;22.67;;;10.63;;
6598;SDS011;3335;43.198;27.918;2023-02-23T00:38:32;24.70;;;11.10;;
6598;SDS011;3335;43.198;27.918;2023-02-23T00:41:04;18.33;;;10.17;;
6598;SDS011;3335;43.198;27.918;2023-02-23T00:43:32;21.50;;;10.80;;
6598;SDS011;3335;43.198;27.918;2023-02-23T00:46:00;21.07;;;12.00;;
6598;SDS011;3335;43.198;27.918;2023-02-23T00:48:30;18.93;;;10.17;;
6598;SDS011;3335;43.198;27.918;2023-02-23T00:50:58;21.53;;;10.47;;
6598;SDS011;3335;43.198;27.918;2023-02-23T00:53:25;36.93;;;18.13;;
6598;SDS011;3335;43.198;27.918;2023-02-23T00:55:52;42.30;;;23.53;;
6598;SDS011;3335;43.198;27.918;2023-02-23T00:58:22;61.63;;;33.30;;
6598;SDS011;3335;43.198;27.918;2023-02-23T01:00:49;64.33;;;33.27;;
6598;SDS011;3335;43.198;27.918;2023-02-23T01:03:16;56.63;;;31.80;;
6598;SDS011;3335;43.198;27.918;2023-02-23T01:05:43;62.47;;;36.03;;
6598;SDS011;3335;43.198;27.918;2023-02-23T01:08:14;63.10;;;32.80;;
6598;SDS011;3335;43.198;27.918;2023-02-23T01:10:41;60.83;;;32.97;;
6598;SDS011;3335;43.198;27.918;2023-02-23T01:13:10;57.07;;;30.27;;
6598;SDS011;3335;43.198;27.918;2023-02-23T01:15:41;54.73;;;30.17;;
6598;SDS011;3335;43.198;27.918;2023-02-23T01:18:08;54.70;;;29.13;;
6598;SDS011;3335;43.198;27.918;2023-02-23T01:20:35;48.60;;;27.43;;
6598;SDS011;3335;43.198;27.918;2023-02-23T01:23:06;50.70;;;27.37;;
6598;SDS011;3335;43.198;27.918;2023-02-23T01:25:33;52.77;;;27.00;;
6598;SDS011;3335;43.198;27.918;2023-02-23T01:28:00;45.33;;;27.93;;
6598;SDS011;3335;43.198;27.918;2023-02-23T01:30:27;44.47;;;27.43;;
6598;SDS011;3335;43.198;27.918;2023-02-23T01:32:56;48.40;;;26.40;;
6598;SDS011;3335;43.198;27.918;2023-02-23T01:35:23;45.03;;;26.93;;
6598;SDS011;3335;43.198;27.918;2023-02-23T01:37:50;49.03;;;25.67;;
6598;SDS011;3335;43.198;27.918;2023-02-23T01:40:17;39.93;;;21.87;;
6598;SDS011;3335;43.198;27.918;2023-02-23T01:42:53;38.90;;;19.87;;
6598;SDS011;3335;43.198;27.918;2023-02-23T01:45:24;45.83;;;20.37;;
6598;SDS011;3335;43.198;27.918;2023-02-23T01:47:59;37.93;;;20.93;;
6598;SDS011;3335;43.198;27.918;2023-02-23T01:50:32;36.07;;;20.23;;
6598;SDS011;3335;43.198;27.918;2023-02-23T01:53:05;34.63;;;19.30;;
6598;SDS011;3335;43.198;27.918;2023-02-23T01:55:33;40.50;;;21.80;;
6598;SDS011;3335;43.198;27.918;2023-02-23T01:58:03;30.80;;;18.97;;
6598;SDS011;3335;43.198;27.918;2023-02-23T02:00:39;36.83;;;19.30;;
6598;SDS011;3335;43.198;27.918;2023-02-23T02:03:10;41.93;;;18.77;;
6598;SDS011;3335;43.198;27.918;2023-02-23T02:05:41;34.03;;;18.50;;
6598;SDS011;3335;43.198;27.918;2023-02-23T02:08:09;34.27;;;17.73;;
6598;SDS011;3335;43.198;27.918;2023-02-23T02:10:37;38.73;;;17.10;;
6598;SDS011;3335;43.198;27.918;2023-02-23T02:13:12;38.47;;;17.23;;
6598;SDS011;3335;43.198;27.918;2023-02-23T02:22:15;26.23;;;13.30;;
6598;SDS011;3335;43.198;27.918;2023-02-23T02:25:21;23.17;;;12.57;;
6598;SDS011;3335;43.198;27.918;2023-02-23T02:28:03;23.93;;;12.47;;
6598;SDS011;3335;43.198;27.918;2023-02-23T02:30:57;25.87;;;11.83;;
6598;SDS011;3335;43.198;27.918;2023-02-23T02:36:57;20.87;;;11.17;;
6598;SDS011;3335;43.198;27.918;2023-02-23T02:39:41;26.67;;;10.80;;
6598;SDS011;3335;43.198;27.918;2023-02-23T02:42:19;23.13;;;11.27;;
6598;SDS011;3335;43.198;27.918;2023-02-23T02:44:51;25.43;;;11.03;;
6598;SDS011;3335;43.198;27.918;2023-02-23T02:47:26;21.03;;;12.13;;
6598;SDS011;3335;43.198;27.918;2023-02-23T02:50:01;36.70;;;12.50;;
6598;SDS011;3335;43.198;27.918;2023-02-23T02:52:34;22.13;;;11.63;;
6598;SDS011;3335;43.198;27.918;2023-02-23T02:55:05;23.33;;;11.77;;
6598;SDS011;3335;43.198;27.918;2023-02-23T02:57:38;25.93;;;10.63;;
6598;SDS011;3335;43.198;27.918;2023-02-23T03:00:07;27.60;;;11.17;;
6598;SDS011;3335;43.198;27.918;2023-02-23T03:02:56;21.40;;;12.27;;
6598;SDS011;3335;43.198;27.918;2023-02-23T03:05:41;17.87;;;11.63;;
6598;SDS011;3335;43.198;27.918;2023-02-23T03:08:32;26.27;;;11.73;;
6598;SDS011;3335;43.198;27.918;2023-02-23T03:11:22;23.77;;;12.40;;
6598;SDS011;3335;43.198;27.918;2023-02-23T03:14:15;23.33;;;10.87;;
6598;SDS011;3335;43.198;27.918;2023-02-23T03:17:07;24.53;;;10.73;;
6598;SDS011;3335;43.198;27.918;2023-02-23T03:19:59;21.70;;;12.27;;
6598;SDS011;3335;43.198;27.918;2023-02-23T03:22:52;21.80;;;10.07;;
6598;SDS011;3335;43.198;27.918;2023-02-23T03:25:44;23.07;;;11.07;;
6598;SDS011;3335;43.198;27.918;2023-02-23T03:28:32;24.23;;;10.37;;
6598;SDS011;3335;43.198;27.918;2023-02-23T03:31:25;22.00;;;10.73;;
6598;SDS011;3335;43.198;27.918;2023-02-23T03:34:14;20.57;;;9.20;;
6598;SDS011;3335;43.198;27.918;2023-02-23T03:37:03;22.03;;;10.97;;
6598;SDS011;3335;43.198;27.918;2023-02-23T03:39:55;22.10;;;10.57;;
6598;SDS011;3335;43.198;27.918;2023-02-23T03:42:45;21.50;;;9.60;;
6598;SDS011;3335;43.198;27.918;2023-02-23T03:45:32;18.57;;;6.90;;
6598;SDS011;3335;43.198;27.918;2023-02-23T03:48:17;15.03;;;6.47;;
6598;SDS011;3335;43.198;27.918;2023-02-23T03:51:04;15.50;;;5.80;;
6598;SDS011;3335;43.198;27.918;2023-02-23T03:53:52;10.37;;;5.23;;
6598;SDS011;3335;43.198;27.918;2023-02-23T03:56:45;11.47;;;4.70;;
6598;SDS011;3335;43.198;27.918;2023-02-23T03:59:35;16.97;;;4.87;;
6598;SDS011;3335;43.198;27.918;2023-02-23T04:02:23;11.50;;;5.07;;
6598;SDS011;3335;43.198;27.918;2023-02-23T04:05:10;10.50;;;4.80;;
6598;SDS011;3335;43.198;27.918;2023-02-23T04:07:59;9.77;;;5.00;;
6598;SDS011;3335;43.198;27.918;2023-02-23T04:10:49;10.23;;;5.30;;
6598;SDS011;3335;43.198;27.918;2023-02-23T04:13:37;10.23;;;4.80;;
6598;SDS011;3335;43.198;27.918;2023-02-23T04:16:06;7.97;;;4.77;;
6598;SDS011;3335;43.198;27.918;2023-02-23T04:18:33;12.10;;;5.00;;
6598;SDS011;3335;43.198;27.918;2023-02-23T04:21:02;14.73;;;5.43;;
6598;SDS011;3335;43.198;27.918;2023-02-23T04:23:30;10.10;;;4.90;;
6598;SDS011;3335;43.198;27.918;2023-02-23T04:25:57;13.13;;;5.50;;
6598;SDS011;3335;43.198;27.918;2023-02-23T04:28:26;11.63;;;4.63;;
6598;SDS011;3335;43.198;27.918;2023-02-23T04:30:54;15.97;;;4.77;;
6598;SDS011;3335;43.198;27.918;2023-02-23T04:33:23;7.53;;;4.40;;
6598;SDS011;3335;43.198;27.918;2023-02-23T04:35:51;12.87;;;4.90;;
6598;SDS011;3335;43.198;27.918;2023-02-23T04:38:18;8.50;;;4.70;;
6598;SDS011;3335;43.198;27.918;2023-02-23T04:40:45;10.30;;;4.50;;
6598;SDS011;3335;43.198;27.918;2023-02-23T04:43:13;13.10;;;5.43;;
6598;SDS011;3335;43.198;27.918;2023-02-23T04:45:40;13.30;;;5.27;;
6598;SDS011;3335;43.198;27.918;2023-02-23T04:48:07;12.40;;;4.80;;
6598;SDS011;3335;43.198;27.918;2023-02-23T04:50:36;9.93;;;4.60;;
6598;SDS011;3335;43.198;27.918;2023-02-23T04:53:03;12.93;;;5.50;;
6598;SDS011;3335;43.198;27.918;2023-02-23T04:55:30;6.13;;;4.40;;
6598;SDS011;3335;43.198;27.918;2023-02-23T04:57:58;8.70;;;4.23;;
6598;SDS011;3335;43.198;27.918;2023-02-23T05:00:27;17.50;;;4.70;;
6598;SDS011;3335;43.198;27.918;2023-02-23T05:02:54;12.43;;;4.30;;
6598;SDS011;3335;43.198;27.918;2023-02-23T05:05:21;9.90;;;3.97;;
6598;SDS011;3335;43.198;27.918;2023-02-23T05:07:50;12.80;;;4.87;;
6598;SDS011;3335;43.198;27.918;2023-02-23T05:10:17;14.37;;;5.20;;
6598;SDS011;3335;43.198;27.918;2023-02-23T05:12:44;13.33;;;4.83;;
6598;SDS011;3335;43.198;27.918;2023-02-23T05:15:11;12.73;;;5.00;;
6598;SDS011;3335;43.198;27.918;2023-02-23T05:17:38;13.60;;;4.70;;
6598;SDS011;3335;43.198;27.918;2023-02-23T05:20:07;7.70;;;4.43;;
6598;SDS011;3335;43.198;27.918;2023-02-23T05:22:35;13.10;;;4.93;;
6598;SDS011;3335;43.198;27.918;2023-02-23T05:25:03;15.40;;;4.37;;
6598;SDS011;3335;43.198;27.918;2023-02-23T05:27:31;14.63;;;5.57;;
6598;SDS011;3335;43.198;27.918;2023-02-23T05:29:58;13.67;;;4.60;;
6598;SDS011;3335;43.198;27.918;2023-02-23T05:32:25;19.43;;;4.63;;
6598;SDS011;3335;43.198;27.918;2023-02-23T05:34:52;13.83;;;4.40;;
6598;SDS011;3335;43.198;27.918;2023-02-23T05:37:19;10.70;;;4.63;;
6598;SDS011;3335;43.198;27.918;2023-02-23T05:39:46;9.70;;;4.80;;
6598;SDS011;3335;43.198;27.918;2023-02-23T05:42:14;12.23;;;4.50;;
6598;SDS011;3335;43.198;27.918;2023-02-23T05:44:41;9.50;;;4.77;;
6598;SDS011;3335;43.198;27.918;2023-02-23T05:47:08;13.40;;;4.80;;
6598;SDS011;3335;43.198;27.918;2023-02-23T05:49:36;10.57;;;4.10;;
6598;SDS011;3335;43.198;27.918;2023-02-23T05:52:03;14.23;;;4.70;;
6598;SDS011;3335;43.198;27.918;2023-02-23T05:54:30;11.80;;;5.00;;
6598;SDS011;3335;43.198;27.918;2023-02-23T05:56:57;11.00;;;4.80;;
6598;SDS011;3335;43.198;27.918;2023-02-23T05:59:26;18.70;;;4.67;;
6598;SDS011;3335;43.198;27.918;2023-02-23T06:01:52;9.10;;;4.30;;
6598;SDS011;3335;43.198;27.918;2023-02-23T06:04:19;16.27;;;4.10;;
6598;SDS011;3335;43.198;27.918;2023-02-23T06:06:47;9.83;;;4.07;;
6598;SDS011;3335;43.198;27.918;2023-02-23T06:09:14;11.83;;;4.13;;
6598;SDS011;3335;43.198;27.918;2023-02-23T06:11:41;7.03;;;3.43;;
6598;SDS011;3335;43.198;27.918;2023-02-23T06:14:08;9.33;;;4.23;;
6598;SDS011;3335;43.198;27.918;2023-02-23T06:16:37;11.63;;;4.60;;
6598;SDS011;3335;43.198;27.918;2023-02-23T06:19:03;11.57;;;4.10;;
6598;SDS011;3335;43.198;27.918;2023-02-23T06:21:30;9.07;;;3.70;;
6598;SDS011;3335;43.198;27.918;2023-02-23T06:23:57;18.57;;;4.53;;
6598;SDS011;3335;43.198;27.918;2023-02-23T06:26:25;11.10;;;4.00;;
6598;SDS011;3335;43.198;27.918;2023-02-23T06:28:52;8.13;;;3.80;;
6598;SDS011;3335;43.198;27.918;2023-02-23T06:31:19;11.07;;;3.73;;
6598;SDS011;3335;43.198;27.918;2023-02-23T06:33:47;14.57;;;4.60;;
6598;SDS011;3335;43.198;27.918;2023-02-23T06:36:15;7.03;;;3.57;;
6598;SDS011;3335;43.198;27.918;2023-02-23T06:38:42;18.23;;;4.80;;
6598;SDS011;3335;43.198;27.918;2023-02-23T06:41:09;10.27;;;3.50;;
6598;SDS011;3335;43.198;27.918;2023-02-23T06:43:36;8.27;;;3.60;;
6598;SDS011;3335;43.198;27.918;2023-02-23T06:46:03;9.53;;;3.70;;
6598;SDS011;3335;43.198;27.918;2023-02-23T06:48:31;10.43;;;4.07;;
6598;SDS011;3335;43.198;27.918;2023-02-23T06:50:59;7.60;;;3.63;;
6598;SDS011;3335;43.198;27.918;2023-02-23T06:53:26;11.20;;;4.33;;
6598;SDS011;3335;43.198;27.918;2023-02-23T06:55:54;10.00;;;3.50;;
6598;SDS011;3335;43.198;27.918;2023-02-23T06:58:21;9.97;;;3.90;;
6598;SDS011;3335;43.198;27.918;2023-02-23T07:00:49;6.47;;;3.03;;
6598;SDS011;3335;43.198;27.918;2023-02-23T07:03:15;10.10;;;3.30;;
6598;SDS011;3335;43.198;27.918;2023-02-23T07:05:43;7.33;;;3.20;;
6598;SDS011;3335;43.198;27.918;2023-02-23T07:08:12;9.17;;;3.47;;
6598;SDS011;3335;43.198;27.918;2023-02-23T07:10:39;8.13;;;2.87;;
6598;SDS011;3335;43.198;27.918;2023-02-23T07:13:06;12.13;;;3.33;;
6598;SDS011;3335;43.198;27.918;2023-02-23T07:15:34;9.43;;;3.07;;
6598;SDS011;3335;43.198;27.918;2023-02-23T07:18:02;8.73;;;3.17;;
6598;SDS011;3335;43.198;27.918;2023-02-23T07:20:29;6.43;;;3.23;;
6598;SDS011;3335;43.198;27.918;2023-02-23T07:22:57;13.57;;;3.53;;
6598;SDS011;3335;43.198;27.918;2023-02-23T07:25:26;17.30;;;4.07;;
6598;SDS011;3335;43.198;27.918;2023-02-23T07:27:53;9.83;;;3.77;;
6598;SDS011;3335;43.198;27.918;2023-02-23T07:30:20;12.07;;;3.10;;
6598;SDS011;3335;43.198;27.918;2023-02-23T07:32:48;6.60;;;3.07;;
6598;SDS011;3335;43.198;27.918;2023-02-23T07:35:16;10.40;;;3.27;;
6598;SDS011;3335;43.198;27.918;2023-02-23T07:37:43;9.40;;;3.67;;
6598;SDS011;3335;43.198;27.918;2023-02-23T07:40:10;10.23;;;3.60;;
6598;SDS011;3335;43.198;27.918;2023-02-23T07:42:39;9.37;;;3.60;;
6598;SDS011;3335;43.198;27.918;2023-02-23T07:45:07;11.50;;;3.30;;
6598;SDS011;3335;43.198;27.918;2023-02-23T07:47:34;9.40;;;3.40;;
6598;SDS011;3335;43.198;27.918;2023-02-23T07:50:01;11.50;;;3.70;;
6598;SDS011;3335;43.198;27.918;2023-02-23T07:52:32;14.07;;;3.37;;
6598;SDS011;3335;43.198;27.918;2023-02-23T07:54:59;8.90;;;3.20;;
6598;SDS011;3335;43.198;27.918;2023-02-23T07:57:25;8.60;;;3.80;;
6598;SDS011;3335;43.198;27.918;2023-02-23T07:59:54;10.57;;;3.90;;
6598;SDS011;3335;43.198;27.918;2023-02-23T08:02:21;6.30;;;2.97;;
6598;SDS011;3335;43.198;27.918;2023-02-23T08:04:47;9.40;;;4.33;;
6598;SDS011;3335;43.198;27.918;2023-02-23T08:07:18;8.10;;;3.10;;
6598;SDS011;3335;43.198;27.918;2023-02-23T08:09:45;8.17;;;3.30;;
6598;SDS011;3335;43.198;27.918;2023-02-23T08:12:13;8.83;;;4.33;;
6598;SDS011;3335;43.198;27.918;2023-02-23T08:14:40;11.13;;;4.27;;
6598;SDS011;3335;43.198;27.918;2023-02-23T08:17:09;5.57;;;3.13;;
6598;SDS011;3335;43.198;27.918;2023-02-23T08:19:36;9.77;;;3.30;;
6598;SDS011;3335;43.198;27.918;2023-02-23T08:22:04;12.03;;;4.50;;
6598;SDS011;3335;43.198;27.918;2023-02-23T08:24:31;6.60;;;2.93;;
6598;SDS011;3335;43.198;27.918;2023-02-23T08:26:58;10.37;;;3.03;;
6598;SDS011;3335;43.198;27.918;2023-02-23T08:29:27;8.73;;;3.00;;
6598;SDS011;3335;43.198;27.918;2023-02-23T08:31:54;11.30;;;3.53;;
6598;SDS011;3335;43.198;27.918;2023-02-23T08:34:23;10.67;;;3.67;;
6598;SDS011;3335;43.198;27.918;2023-02-23T08:36:50;5.50;;;2.70;;
6598;SDS011;3335;43.198;27.918;2023-02-23T08:39:18;6.33;;;3.00;;
6598;SDS011;3335;43.198;27.918;2023-02-23T08:41:45;5.97;;;2.73;;
6598;SDS011;3335;43.198;27.918;2023-02-23T08:44:12;8.40;;;3.20;;
6598;SDS011;3335;43.198;27.918;2023-02-23T08:46:39;7.97;;;2.40;;
6598;SDS011;3335;43.198;27.918;2023-02-23T08:49:06;6.13;;;2.60;;
6598;SDS011;3335;43.198;27.918;2023-02-23T08:51:36;10.43;;;2.80;;
6598;SDS011;3335;43.198;27.918;2023-02-23T08:54:05;8.70;;;2.57;;
6598;SDS011;3335;43.198;27.918;2023-02-23T08:56:36;7.63;;;2.80;;
6598;SDS011;3335;43.198;27.918;2023-02-23T08:59:03;6.40;;;2.50;;
6598;SDS011;3335;43.198;27.918;2023-02-23T09:01:31;5.63;;;2.87;;
6598;SDS011;3335;43.198;27.918;2023-02-23T09:03:58;12.90;;;3.50;;
6598;SDS011;3335;43.198;27.918;2023-02-23T09:06:25;11.03;;;2.90;;
6598;SDS011;3335;43.198;27.918;2023-02-23T09:08:54;5.20;;;2.60;;
6598;SDS011;3335;43.198;27.918;2023-02-23T09:11:21;7.47;;;2.90;;
6598;SDS011;3335;43.198;27.918;2023-02-23T09:13:49;8.80;;;2.37;;
6598;SDS011;3335;43.198;27.918;2023-02-23T09:16:16;14.90;;;2.83;;
6598;SDS011;3335;43.198;27.918;2023-02-23T09:18:43;6.57;;;3.13;;
6598;SDS011;3335;43.198;27.918;2023-02-23T09:21:13;6.60;;;2.70;;
6598;SDS011;3335;43.198;27.918;2023-02-23T09:23:45;5.07;;;3.07;;
6598;SDS011;3335;43.198;27.918;2023-02-23T09:26:17;7.07;;;2.50;;
6598;SDS011;3335;43.198;27.918;2023-02-23T09:28:44;4.53;;;2.70;;
6598;SDS011;3335;43.198;27.918;2023-02-23T09:31:12;8.20;;;3.03;;
6598;SDS011;3335;43.198;27.918;2023-02-23T09:33:41;7.23;;;2.57;;
6598;SDS011;3335;43.198;27.918;2023-02-23T09:36:09;8.87;;;2.53;;
6598;SDS011;3335;43.198;27.918;2023-02-23T09:38:40;10.80;;;2.90;;
6598;SDS011;3335;43.198;27.918;2023-02-23T09:41:08;8.93;;;3.10;;
6598;SDS011;3335;43.198;27.918;2023-02-23T09:44:00;8.40;;;2.63;;
6598;SDS011;3335;43.198;27.918;2023-02-23T09:46:34;7.63;;;2.83;;
6598;SDS011;3335;43.198;27.918;2023-02-23T09:49:10;7.10;;;2.60;;
6598;SDS011;3335;43.198;27.918;2023-02-23T09:51:43;9.70;;;3.17;;
6598;SDS011;3335;43.198;27.918;2023-02-23T09:54:17;9.50;;;2.90;;
6598;SDS011;3335;43.198;27.918;2023-02-23T09:56:50;7.80;;;2.90;;
6598;SDS011;3335;43.198;27.918;2023-02-23T09:59:20;11.23;;;3.00;;
6598;SDS011;3335;43.198;27.918;2023-02-23T10:01:53;6.20;;;3.07;;
6598;SDS011;3335;43.198;27.918;2023-02-23T10:04:30;5.73;;;2.50;;
6598;SDS011;3335;43.198;27.918;2023-02-23T10:07:03;9.80;;;2.87;;
6598;SDS011;3335;43.198;27.918;2023-02-23T10:09:43;6.47;;;3.30;;
6598;SDS011;3335;43.198;27.918;2023-02-23T10:12:25;10.67;;;3.07;;
6598;SDS011;3335;43.198;27.918;2023-02-23T10:15:15;11.13;;;3.10;;
6598;SDS011;3335;43.198;27.918;2023-02-23T10:17:51;11.63;;;3.73;;
6598;SDS011;3335;43.198;27.918;2023-02-23T10:20:28;8.20;;;3.07;;
6598;SDS011;3335;43.198;27.918;2023-02-23T10:23:03;10.00;;;3.30;;
6598;SDS011;3335;43.198;27.918;2023-02-23T10:25:34;10.07;;;2.93;;
6598;SDS011;3335;43.198;27.918;2023-02-23T10:28:09;6.60;;;3.00;;
6598;SDS011;3335;43.198;27.918;2023-02-23T10:30:40;9.87;;;3.10;;
6598;SDS011;3335;43.198;27.918;2023-02-23T10:33:12;5.43;;;2.70;;
6598;SDS011;3335;43.198;27.918;2023-02-23T10:35:42;9.43;;;2.83;;
6598;SDS011;3335;43.198;27.918;2023-02-23T10:38:12;4.27;;;2.63;;
6598;SDS011;3335;43.198;27.918;2023-02-23T10:40:41;6.33;;;2.97;;
6598;SDS011;3335;43.198;27.918;2023-02-23T10:43:11;8.03;;;2.77;;
6598;SDS011;3335;43.198;27.918;2023-02-23T10:45:42;7.57;;;2.73;;
6598;SDS011;3335;43.198;27.918;2023-02-23T10:48:13;7.67;;;2.70;;
6598;SDS011;3335;43.198;27.918;2023-02-23T10:50:43;6.83;;;2.70;;
6598;SDS011;3335;43.198;27.918;2023-02-23T10:53:14;8.47;;;3.10;;
6598;SDS011;3335;43.198;27.918;2023-02-23T10:55:58;7.20;;;3.13;;
6598;SDS011;3335;43.198;27.918;2023-02-23T10:58:28;7.37;;;3.13;;
6598;SDS011;3335;43.198;27.918;2023-02-23T11:00:57;8.07;;;2.93;;
6598;SDS011;3335;43.198;27.918;2023-02-23T11:03:26;10.33;;;2.97;;
6598;SDS011;3335;43.198;27.918;2023-02-23T11:05:57;9.90;;;3.20;;
6598;SDS011;3335;43.198;27.918;2023-02-23T11:08:29;6.93;;;2.63;;
6598;SDS011;3335;43.198;27.918;2023-02-23T11:11:24;6.47;;;2.90;;
6598;SDS011;3335;43.198;27.918;2023-02-23T11:13:54;8.70;;;3.13;;
6598;SDS011;3335;43.198;27.918;2023-02-23T11:16:22;9.73;;;2.93;;
6598;SDS011;3335;43.198;27.918;2023-02-23T11:18:53;6.57;;;3.07;;
6598;SDS011;3335;43.198;27.918;2023-02-23T11:21:25;11.50;;;3.07;;
6598;SDS011;3335;43.198;27.918;2023-02-23T11:23:57;6.37;;;2.50;;
6598;SDS011;3335;43.198;27.918;2023-02-23T11:26:34;13.50;;;3.00;;
6598;SDS011;3335;43.198;27.918;2023-02-23T11:29:10;9.13;;;3.37;;
6598;SDS011;3335;43.198;27.918;2023-02-23T11:31:44;6.67;;;3.03;;
6598;SDS011;3335;43.198;27.918;2023-02-23T11:34:18;6.67;;;2.73;;
6598;SDS011;3335;43.198;27.918;2023-02-23T11:36:57;7.20;;;3.33;;
6598;SDS011;3335;43.198;27.918;2023-02-23T11:39:26;10.37;;;3.20;;
6598;SDS011;3335;43.198;27.918;2023-02-23T11:42:03;8.47;;;3.43;;
6598;SDS011;3335;43.198;27.918;2023-02-23T11:44:41;9.43;;;3.37;;
6598;SDS011;3335;43.198;27.918;2023-02-23T11:47:15;8.67;;;3.07;;
6598;SDS011;3335;43.198;27.918;2023-02-23T11:49:44;5.00;;;3.17;;
6598;SDS011;3335;43.198;27.918;2023-02-23T11:52:14;6.73;;;2.93;;
6598;SDS011;3335;43.198;27.918;2023-02-23T11:54:47;11.77;;;3.03;;
6598;SDS011;3335;43.198;27.918;2023-02-23T11:57:20;7.70;;;2.80;;
6598;SDS011;3335;43.198;27.918;2023-02-23T11:59:49;5.50;;;3.03;;
6598;SDS011;3335;43.198;27.918;2023-02-23T12:02:19;5.60;;;2.97;;
6598;SDS011;3335;43.198;27.918;2023-02-23T12:04:49;9.77;;;3.07;;
6598;SDS011;3335;43.198;27.918;2023-02-23T12:07:23;13.13;;;3.70;;
6598;SDS011;3335;43.198;27.918;2023-02-23T12:09:57;8.70;;;3.30;;
6598;SDS011;3335;43.198;27.918;2023-02-23T12:12:30;8.67;;;2.80;;
6598;SDS011;3335;43.198;27.918;2023-02-23T12:15:09;5.97;;;2.53;;
6598;SDS011;3335;43.198;27.918;2023-02-23T12:17:42;4.33;;;2.33;;
6598;SDS011;3335;43.198;27.918;2023-02-23T12:20:15;8.27;;;3.10;;
6598;SDS011;3335;43.198;27.918;2023-02-23T12:22:47;11.70;;;3.57;;
6598;SDS011;3335;43.198;27.918;2023-02-23T12:25:20;9.37;;;2.90;;
6598;SDS011;3335;43.198;27.918;2023-02-23T12:27:53;6.73;;;3.00;;
6598;SDS011;3335;43.198;27.918;2023-02-23T12:30:30;10.07;;;3.03;;
6598;SDS011;3335;43.198;27.918;2023-02-23T12:33:03;5.53;;;2.87;;
6598;SDS011;3335;43.198;27.918;2023-02-23T12:35:38;4.20;;;2.90;;
6598;SDS011;3335;43.198;27.918;2023-02-23T12:38:14;8.70;;;3.17;;
6598;SDS011;3335;43.198;27.918;2023-02-23T12:40:53;7.23;;;3.07;;
6598;SDS011;3335;43.198;27.918;2023-02-23T12:43:28;8.47;;;3.07;;
6598;SDS011;3335;43.198;27.918;2023-02-23T12:46:04;10.43;;;2.83;;
6598;SDS011;3335;43.198;27.918;2023-02-23T12:48:37;8.97;;;3.77;;
6598;SDS011;3335;43.198;27.918;2023-02-23T12:51:15;8.93;;;2.93;;
6598;SDS011;3335;43.198;27.918;2023-02-23T12:53:49;8.27;;;3.20;;
6598;SDS011;3335;43.198;27.918;2023-02-23T12:56:26;11.97;;;3.43;;
6598;SDS011;3335;43.198;27.918;2023-02-23T12:59:03;7.30;;;3.40;;
6598;SDS011;3335;43.198;27.918;2023-02-23T13:01:43;11.33;;;3.23;;
6598;SDS011;3335;43.198;27.918;2023-02-23T13:04:24;8.80;;;3.10;;
6598;SDS011;3335;43.198;27.918;2023-02-23T13:07:00;12.57;;;3.10;;
6598;SDS011;3335;43.198;27.918;2023-02-23T13:09:42;10.60;;;3.57;;
6598;SDS011;3335;43.198;27.918;2023-02-23T13:12:21;6.80;;;2.57;;
6598;SDS011;3335;43.198;27.918;2023-02-23T13:15:11;10.43;;;3.60;;
6598;SDS011;3335;43.198;27.918;2023-02-23T13:17:50;8.77;;;2.77;;
6598;SDS011;3335;43.198;27.918;2023-02-23T13:20:28;6.43;;;2.70;;
6598;SDS011;3335;43.198;27.918;2023-02-23T13:23:02;9.50;;;2.67;;
6598;SDS011;3335;43.198;27.918;2023-02-23T13:25:39;7.70;;;2.63;;
6598;SDS011;3335;43.198;27.918;2023-02-23T13:28:15;4.33;;;2.40;;
6598;SDS011;3335;43.198;27.918;2023-02-23T13:30:46;8.53;;;2.47;;
6598;SDS011;3335;43.198;27.918;2023-02-23T13:33:18;5.97;;;2.60;;
6598;SDS011;3335;43.198;27.918;2023-02-23T13:35:50;10.40;;;2.60;;
6598;SDS011;3335;43.198;27.918;2023-02-23T13:38:20;4.87;;;2.53;;
6598;SDS011;3335;43.198;27.918;2023-02-23T13:40:51;9.53;;;3.10;;
6598;SDS011;3335;43.198;27.918;2023-02-23T13:43:26;11.97;;;3.27;;
6598;SDS011;3335;43.198;27.918;2023-02-23T13:46:01;7.63;;;2.87;;
6598;SDS011;3335;43.198;27.918;2023-02-23T13:48:44;9.47;;;2.80;;
6598;SDS011;3335;43.198;27.918;2023-02-23T13:51:19;13.20;;;3.50;;
6598;SDS011;3335;43.198;27.918;2023-02-23T13:53:59;11.77;;;2.97;;
6598;SDS011;3335;43.198;27.918;2023-02-23T13:56:27;11.20;;;3.10;;
6598;SDS011;3335;43.198;27.918;2023-02-23T13:58:58;7.73;;;3.07;;
6598;SDS011;3335;43.198;27.918;2023-02-23T14:01:28;12.40;;;2.87;;
6598;SDS011;3335;43.198;27.918;2023-02-23T14:03:59;10.90;;;3.40;;
6598;SDS011;3335;43.198;27.918;2023-02-23T14:06:29;12.57;;;3.93;;
6598;SDS011;3335;43.198;27.918;2023-02-23T14:08:58;18.83;;;3.63;;
6598;SDS011;3335;43.198;27.918;2023-02-23T14:11:37;12.03;;;4.57;;
6598;SDS011;3335;43.198;27.918;2023-02-23T14:14:10;6.40;;;3.90;;
6598;SDS011;3335;43.198;27.918;2023-02-23T14:16:41;12.10;;;3.67;;
6598;SDS011;3335;43.198;27.918;2023-02-23T14:19:16;11.70;;;3.93;;
6598;SDS011;3335;43.198;27.918;2023-02-23T14:22:01;10.63;;;3.90;;
6598;SDS011;3335;43.198;27.918;2023-02-23T14:24:30;8.20;;;3.77;;
6598;SDS011;3335;43.198;27.918;2023-02-23T14:27:17;12.17;;;3.80;;
6598;SDS011;3335;43.198;27.918;2023-02-23T14:32:42;8.33;;;4.20;;
6598;SDS011;3335;43.198;27.918;2023-02-23T14:38:22;11.63;;;3.60;;
6598;SDS011;3335;43.198;27.918;2023-02-23T14:40:56;13.93;;;4.47;;
6598;SDS011;3335;43.198;27.918;2023-02-23T14:43:30;11.60;;;3.30;;
6598;SDS011;3335;43.198;27.918;2023-02-23T14:46:15;11.83;;;3.70;;
6598;SDS011;3335;43.198;27.918;2023-02-23T14:48:54;12.90;;;4.13;;
6598;SDS011;3335;43.198;27.918;2023-02-23T14:51:26;10.97;;;3.80;;
6598;SDS011;3335;43.198;27.918;2023-02-23T14:54:12;9.60;;;3.57;;
6598;SDS011;3335;43.198;27.918;2023-02-23T14:56:53;13.30;;;4.30;;
6598;SDS011;3335;43.198;27.918;2023-02-23T14:59:22;10.67;;;4.00;;
6598;SDS011;3335;43.198;27.918;2023-02-23T15:01:52;11.57;;;5.17;;
6598;SDS011;3335;43.198;27.918;2023-02-23T15:04:20;13.07;;;5.23;;
6598;SDS011;3335;43.198;27.918;2023-02-23T15:06:50;10.50;;;4.00;;
6598;SDS011;3335;43.198;27.918;2023-02-23T15:09:21;9.40;;;3.87;;
6598;SDS011;3335;43.198;27.918;2023-02-23T15:11:56;6.73;;;3.80;;
6598;SDS011;3335;43.198;27.918;2023-02-23T15:14:24;12.60;;;4.40;;
6598;SDS011;3335;43.198;27.918;2023-02-23T15:16:52;7.67;;;3.93;;
6598;SDS011;3335;43.198;27.918;2023-02-23T15:19:30;12.07;;;4.50;;
6598;SDS011;3335;43.198;27.918;2023-02-23T15:22:02;13.60;;;4.23;;
6598;SDS011;3335;43.198;27.918;2023-02-23T15:24:31;14.07;;;4.10;;
6598;SDS011;3335;43.198;27.918;2023-02-23T15:27:05;18.67;;;3.97;;
6598;SDS011;3335;43.198;27.918;2023-02-23T15:29:41;10.20;;;3.87;;
6598;SDS011;3335;43.198;27.918;2023-02-23T15:32:09;10.60;;;4.10;;
6598;SDS011;3335;43.198;27.918;2023-02-23T15:34:41;10.80;;;3.97;;
6598;SDS011;3335;43.198;27.918;2023-02-23T15:37:11;13.67;;;4.10;;